This is the latest recevied weather packets stored in our database for station/object WP4PW. If no packets are shown the sender has not sent any weather packets the latest 1 day(s).
| Time | Temp. | Humidity | Pressure | Rain* | Wind** | Luminosity | Snow |
|---|---|---|---|---|---|---|---|
| 1778063427 | 26.67° C | 86% | 1021.8 hPa | 0 mm | - | 51 W/m² | - |
| 1778063126 | 27.22° C | 85% | 1021.7 hPa | 0 mm | - | 36 W/m² | - |
| 1778062823 | 26.67° C | 86% | 1021.7 hPa | 0 mm | - | 32 W/m² | - |
| 1778061613 | 26.67° C | 86% | 1021.7 hPa | 0 mm | - | 7 W/m² | - |
| 1778060705 | 26.67° C | 88% | 1021.4 hPa | 0 mm | - | 1 W/m² | - |
| 1778060101 | 26.67° C | 89% | 1021.3 hPa | 0 mm | - | 0 W/m² | - |
| 1778059798 | 26.67° C | 88% | 1021.4 hPa | 0 mm | - | 0 W/m² | - |
| 1778058587 | 26.67° C | 88% | 1021.2 hPa | 0 mm | - | 0 W/m² | - |
| 1778058285 | 26.67° C | 88% | 1021.2 hPa | 0 mm | - | 0 W/m² | - |
| 1778057981 | 26.67° C | 88% | 1021.2 hPa | 0 mm | - | 0 W/m² | - |
| 1778057678 | 26.67° C | 88% | 1021.2 hPa | 0 mm | - | 0 W/m² | - |
| 1778057374 | 26.67° C | 88% | 1021.2 hPa | 0 mm | - | 0 W/m² | - |
| 1778056767 | 26.67° C | 88% | 1021 hPa | 0 mm | - | 0 W/m² | - |
| 1778056162 | 26.67° C | 88% | 1020.9 hPa | 0 mm | - | 0 W/m² | - |
| 1778055859 | 26.67° C | 89% | 1021.1 hPa | 0 mm | - | 0 W/m² | - |
| 1778055554 | 26.11° C | 89% | 1021 hPa | 0 mm | - | 0 W/m² | - |
| 1778054647 | 25° C | 93% | 1020.9 hPa | 0 mm | - | 0 W/m² | - |
| 1778054345 | 25° C | 93% | 1020.9 hPa | 0 mm | - | 0 W/m² | - |
| 1778054042 | 25° C | 92% | 1020.7 hPa | 0 mm | - | 0 W/m² | - |
| 1778053739 | 25.56° C | 92% | 1021 hPa | 0 mm | - | 0 W/m² | - |
| 1778053436 | 25.56° C | 92% | 1020.8 hPa | 0 mm | - | 0 W/m² | - |
| 1778052831 | 25.56° C | 91% | 1020.9 hPa | 0 mm | - | 0 W/m² | - |
| 1778051923 | 25.56° C | 90% | 1021.1 hPa | 0 mm | - | 0 W/m² | - |
| 1778051621 | 26.11° C | 89% | 1021 hPa | 0 mm | - | 0 W/m² | - |
| 1778050712 | 26.11° C | 87% | 1020.9 hPa | 0 mm | - | 0 W/m² | - |
* Rain latest hour (hover to see other rain measurements)
** Current wind speed in m/s (hover to see current wind gust speed)